sensor_id;sensor_type;location;lat;lon;timestamp;P1;durP1;ratioP1;P2;durP2;ratioP2
173;SDS011;75;48.784;9.364;2022-12-18T00:00:57;86.30;;;28.33;;
173;SDS011;75;48.784;9.364;2022-12-18T00:03:25;77.28;;;25.88;;
173;SDS011;75;48.784;9.364;2022-12-18T00:05:52;83.68;;;26.75;;
173;SDS011;75;48.784;9.364;2022-12-18T00:08:20;79.85;;;29.25;;
173;SDS011;75;48.784;9.364;2022-12-18T00:10:47;87.45;;;27.10;;
173;SDS011;75;48.784;9.364;2022-12-18T00:13:14;78.75;;;24.67;;
173;SDS011;75;48.784;9.364;2022-12-18T00:15:42;97.53;;;28.17;;
173;SDS011;75;48.784;9.364;2022-12-18T00:18:09;85.05;;;25.13;;
173;SDS011;75;48.784;9.364;2022-12-18T00:20:37;81.47;;;25.73;;
173;SDS011;75;48.784;9.364;2022-12-18T00:23:05;75.63;;;24.13;;
173;SDS011;75;48.784;9.364;2022-12-18T00:25:34;93.68;;;28.50;;
173;SDS011;75;48.784;9.364;2022-12-18T00:28:02;89.53;;;29.70;;
173;SDS011;75;48.784;9.364;2022-12-18T00:30:29;91.78;;;27.85;;
173;SDS011;75;48.784;9.364;2022-12-18T00:32:57;81.03;;;26.30;;
173;SDS011;75;48.784;9.364;2022-12-18T00:35:24;77.97;;;23.83;;
173;SDS011;75;48.784;9.364;2022-12-18T00:37:52;79.65;;;24.77;;
173;SDS011;75;48.784;9.364;2022-12-18T00:40:19;81.30;;;26.48;;
173;SDS011;75;48.784;9.364;2022-12-18T00:42:46;85.57;;;27.42;;
173;SDS011;75;48.784;9.364;2022-12-18T00:45:26;77.25;;;25.70;;
173;SDS011;75;48.784;9.364;2022-12-18T00:47:54;78.80;;;23.65;;
173;SDS011;75;48.784;9.364;2022-12-18T00:50:22;76.97;;;27.08;;
173;SDS011;75;48.784;9.364;2022-12-18T00:52:50;78.22;;;22.52;;
173;SDS011;75;48.784;9.364;2022-12-18T00:55:17;79.47;;;24.25;;
173;SDS011;75;48.784;9.364;2022-12-18T00:57:44;86.68;;;28.65;;
173;SDS011;75;48.784;9.364;2022-12-18T01:00:13;93.03;;;26.95;;
173;SDS011;75;48.784;9.364;2022-12-18T01:02:40;83.78;;;27.38;;
173;SDS011;75;48.784;9.364;2022-12-18T01:05:08;91.78;;;27.60;;
173;SDS011;75;48.784;9.364;2022-12-18T01:07:37;67.65;;;20.92;;
173;SDS011;75;48.784;9.364;2022-12-18T01:10:05;75.05;;;24.10;;
173;SDS011;75;48.784;9.364;2022-12-18T01:12:32;65.03;;;20.08;;
173;SDS011;75;48.784;9.364;2022-12-18T01:15:00;65.00;;;21.38;;
173;SDS011;75;48.784;9.364;2022-12-18T01:17:27;70.95;;;21.20;;
173;SDS011;75;48.784;9.364;2022-12-18T01:19:55;65.10;;;21.95;;
173;SDS011;75;48.784;9.364;2022-12-18T01:22:22;67.03;;;22.58;;
173;SDS011;75;48.784;9.364;2022-12-18T01:24:49;61.22;;;19.75;;
173;SDS011;75;48.784;9.364;2022-12-18T01:27:17;66.15;;;21.50;;
173;SDS011;75;48.784;9.364;2022-12-18T01:29:44;67.65;;;18.40;;
173;SDS011;75;48.784;9.364;2022-12-18T01:32:11;57.28;;;19.20;;
173;SDS011;75;48.784;9.364;2022-12-18T01:34:39;54.72;;;18.20;;
173;SDS011;75;48.784;9.364;2022-12-18T01:37:06;65.47;;;18.90;;
173;SDS011;75;48.784;9.364;2022-12-18T01:39:33;55.17;;;19.73;;
173;SDS011;75;48.784;9.364;2022-12-18T01:42:05;56.90;;;18.90;;
173;SDS011;75;48.784;9.364;2022-12-18T01:47:40;66.57;;;19.00;;
173;SDS011;75;48.784;9.364;2022-12-18T01:50:07;56.47;;;18.80;;
173;SDS011;75;48.784;9.364;2022-12-18T01:52:35;69.20;;;16.50;;
173;SDS011;75;48.784;9.364;2022-12-18T01:55:04;57.88;;;18.13;;
173;SDS011;75;48.784;9.364;2022-12-18T01:57:31;58.67;;;19.17;;
173;SDS011;75;48.784;9.364;2022-12-18T02:00:00;68.32;;;22.50;;
173;SDS011;75;48.784;9.364;2022-12-18T02:02:28;53.08;;;19.35;;
173;SDS011;75;48.784;9.364;2022-12-18T02:04:56;61.08;;;19.17;;
173;SDS011;75;48.784;9.364;2022-12-18T02:18:27;58.50;;;19.25;;
173;SDS011;75;48.784;9.364;2022-12-18T02:21:00;54.15;;;17.33;;
173;SDS011;75;48.784;9.364;2022-12-18T02:23:35;58.60;;;19.45;;
173;SDS011;75;48.784;9.364;2022-12-18T02:28:55;66.85;;;21.38;;
173;SDS011;75;48.784;9.364;2022-12-18T02:31:26;62.90;;;18.77;;
173;SDS011;75;48.784;9.364;2022-12-18T02:33:55;58.72;;;20.83;;
173;SDS011;75;48.784;9.364;2022-12-18T02:36:23;54.42;;;18.38;;
173;SDS011;75;48.784;9.364;2022-12-18T02:38:52;62.28;;;17.20;;
173;SDS011;75;48.784;9.364;2022-12-18T02:41:20;61.38;;;19.40;;
173;SDS011;75;48.784;9.364;2022-12-18T02:43:48;75.70;;;25.60;;
173;SDS011;75;48.784;9.364;2022-12-18T02:54:47;43.50;;;16.83;;
173;SDS011;75;48.784;9.364;2022-12-18T02:57:18;59.78;;;19.40;;
173;SDS011;75;48.784;9.364;2022-12-18T02:59:49;58.00;;;18.90;;
173;SDS011;75;48.784;9.364;2022-12-18T03:02:25;56.85;;;20.23;;
173;SDS011;75;48.784;9.364;2022-12-18T03:04:59;60.22;;;19.38;;
173;SDS011;75;48.784;9.364;2022-12-18T03:07:32;65.50;;;21.98;;
173;SDS011;75;48.784;9.364;2022-12-18T03:10:00;58.88;;;21.67;;
173;SDS011;75;48.784;9.364;2022-12-18T03:12:30;60.03;;;19.75;;
173;SDS011;75;48.784;9.364;2022-12-18T03:15:09;56.83;;;18.90;;
173;SDS011;75;48.784;9.364;2022-12-18T03:17:36;54.30;;;16.80;;
173;SDS011;75;48.784;9.364;2022-12-18T03:20:07;62.00;;;20.60;;
173;SDS011;75;48.784;9.364;2022-12-18T03:22:35;58.05;;;20.20;;
173;SDS011;75;48.784;9.364;2022-12-18T03:25:06;62.47;;;19.40;;
173;SDS011;75;48.784;9.364;2022-12-18T03:27:34;53.10;;;17.55;;
173;SDS011;75;48.784;9.364;2022-12-18T03:30:03;60.75;;;20.77;;
173;SDS011;75;48.784;9.364;2022-12-18T03:32:37;61.03;;;19.77;;
173;SDS011;75;48.784;9.364;2022-12-18T03:35:06;57.78;;;19.15;;
173;SDS011;75;48.784;9.364;2022-12-18T03:37:35;65.60;;;25.05;;
173;SDS011;75;48.784;9.364;2022-12-18T03:40:03;69.95;;;23.38;;
173;SDS011;75;48.784;9.364;2022-12-18T03:42:39;61.83;;;19.30;;
173;SDS011;75;48.784;9.364;2022-12-18T03:45:29;66.65;;;22.63;;
173;SDS011;75;48.784;9.364;2022-12-18T03:48:03;66.60;;;23.30;;
173;SDS011;75;48.784;9.364;2022-12-18T03:50:37;63.78;;;20.20;;
173;SDS011;75;48.784;9.364;2022-12-18T03:55:35;59.17;;;19.45;;
173;SDS011;75;48.784;9.364;2022-12-18T03:58:03;54.20;;;19.55;;
173;SDS011;75;48.784;9.364;2022-12-18T04:00:31;63.58;;;22.30;;
173;SDS011;75;48.784;9.364;2022-12-18T04:02:59;64.30;;;20.08;;
173;SDS011;75;48.784;9.364;2022-12-18T04:05:28;71.97;;;21.52;;
173;SDS011;75;48.784;9.364;2022-12-18T04:07:56;77.97;;;22.65;;
173;SDS011;75;48.784;9.364;2022-12-18T04:10:23;67.53;;;22.75;;
173;SDS011;75;48.784;9.364;2022-12-18T04:12:50;76.90;;;22.48;;
173;SDS011;75;48.784;9.364;2022-12-18T04:15:18;72.25;;;23.20;;
173;SDS011;75;48.784;9.364;2022-12-18T04:17:47;70.97;;;23.67;;
173;SDS011;75;48.784;9.364;2022-12-18T04:20:15;67.82;;;21.30;;
173;SDS011;75;48.784;9.364;2022-12-18T04:22:42;70.88;;;21.27;;
173;SDS011;75;48.784;9.364;2022-12-18T04:25:10;71.65;;;20.63;;
173;SDS011;75;48.784;9.364;2022-12-18T04:27:37;79.03;;;22.80;;
173;SDS011;75;48.784;9.364;2022-12-18T04:30:04;67.82;;;22.17;;
173;SDS011;75;48.784;9.364;2022-12-18T04:32:33;83.78;;;23.73;;
173;SDS011;75;48.784;9.364;2022-12-18T04:35:00;75.05;;;19.80;;
173;SDS011;75;48.784;9.364;2022-12-18T04:37:28;66.78;;;18.85;;
173;SDS011;75;48.784;9.364;2022-12-18T04:39:55;78.80;;;23.15;;
173;SDS011;75;48.784;9.364;2022-12-18T04:42:23;74.18;;;20.98;;
173;SDS011;75;48.784;9.364;2022-12-18T04:44:50;72.53;;;21.75;;
173;SDS011;75;48.784;9.364;2022-12-18T04:47:17;83.20;;;23.50;;
173;SDS011;75;48.784;9.364;2022-12-18T04:49:44;76.32;;;20.77;;
173;SDS011;75;48.784;9.364;2022-12-18T04:52:12;82.82;;;24.73;;
173;SDS011;75;48.784;9.364;2022-12-18T04:54:39;70.22;;;22.77;;
173;SDS011;75;48.784;9.364;2022-12-18T04:57:07;82.97;;;22.30;;
173;SDS011;75;48.784;9.364;2022-12-18T04:59:34;101.32;;;21.55;;
173;SDS011;75;48.784;9.364;2022-12-18T05:02:02;82.55;;;22.45;;
173;SDS011;75;48.784;9.364;2022-12-18T05:04:29;90.90;;;25.45;;
173;SDS011;75;48.784;9.364;2022-12-18T05:06:56;98.53;;;27.90;;
173;SDS011;75;48.784;9.364;2022-12-18T05:09:23;90.32;;;29.08;;
173;SDS011;75;48.784;9.364;2022-12-18T05:11:51;84.72;;;25.50;;
173;SDS011;75;48.784;9.364;2022-12-18T05:14:18;106.75;;;29.98;;
173;SDS011;75;48.784;9.364;2022-12-18T05:16:46;91.43;;;26.88;;
173;SDS011;75;48.784;9.364;2022-12-18T05:19:13;98.07;;;27.73;;
173;SDS011;75;48.784;9.364;2022-12-18T05:21:40;100.97;;;27.52;;
173;SDS011;75;48.784;9.364;2022-12-18T05:24:08;107.03;;;30.05;;
173;SDS011;75;48.784;9.364;2022-12-18T05:26:35;102.93;;;33.75;;
173;SDS011;75;48.784;9.364;2022-12-18T05:29:03;104.57;;;32.97;;
173;SDS011;75;48.784;9.364;2022-12-18T05:31:30;90.80;;;27.13;;
173;SDS011;75;48.784;9.364;2022-12-18T05:33:57;93.78;;;29.67;;
173;SDS011;75;48.784;9.364;2022-12-18T05:36:25;117.60;;;32.80;;
173;SDS011;75;48.784;9.364;2022-12-18T05:38:52;121.88;;;37.92;;
173;SDS011;75;48.784;9.364;2022-12-18T05:41:20;97.40;;;29.10;;
173;SDS011;75;48.784;9.364;2022-12-18T05:43:47;97.53;;;29.60;;
173;SDS011;75;48.784;9.364;2022-12-18T05:46:15;167.20;;;49.10;;
173;SDS011;75;48.784;9.364;2022-12-18T05:48:44;147.63;;;44.80;;
173;SDS011;75;48.784;9.364;2022-12-18T05:51:13;109.53;;;35.75;;
173;SDS011;75;48.784;9.364;2022-12-18T05:53:41;86.10;;;27.35;;
173;SDS011;75;48.784;9.364;2022-12-18T05:56:10;85.93;;;25.08;;
173;SDS011;75;48.784;9.364;2022-12-18T05:58:37;94.60;;;31.48;;
173;SDS011;75;48.784;9.364;2022-12-18T06:03:38;73.13;;;23.17;;
173;SDS011;75;48.784;9.364;2022-12-18T06:06:22;82.78;;;26.20;;
173;SDS011;75;48.784;9.364;2022-12-18T06:08:50;89.97;;;29.38;;
173;SDS011;75;48.784;9.364;2022-12-18T06:11:18;95.22;;;26.08;;
173;SDS011;75;48.784;9.364;2022-12-18T06:13:46;89.05;;;23.83;;
173;SDS011;75;48.784;9.364;2022-12-18T06:16:13;76.63;;;21.02;;
173;SDS011;75;48.784;9.364;2022-12-18T06:18:40;95.80;;;27.55;;
173;SDS011;75;48.784;9.364;2022-12-18T06:21:08;79.82;;;24.25;;
173;SDS011;75;48.784;9.364;2022-12-18T06:23:35;69.13;;;21.80;;
173;SDS011;75;48.784;9.364;2022-12-18T06:26:06;93.60;;;26.02;;
173;SDS011;75;48.784;9.364;2022-12-18T06:28:33;98.72;;;30.30;;
173;SDS011;75;48.784;9.364;2022-12-18T06:31:02;91.05;;;26.30;;
173;SDS011;75;48.784;9.364;2022-12-18T06:33:29;67.20;;;22.95;;
173;SDS011;75;48.784;9.364;2022-12-18T06:36:01;73.20;;;23.63;;
173;SDS011;75;48.784;9.364;2022-12-18T06:38:29;82.03;;;24.48;;
173;SDS011;75;48.784;9.364;2022-12-18T06:40:57;74.57;;;20.05;;
173;SDS011;75;48.784;9.364;2022-12-18T06:43:24;76.38;;;21.95;;
173;SDS011;75;48.784;9.364;2022-12-18T06:45:57;171.80;;;41.65;;
173;SDS011;75;48.784;9.364;2022-12-18T06:48:24;127.03;;;34.78;;
173;SDS011;75;48.784;9.364;2022-12-18T06:50:52;88.00;;;28.60;;
173;SDS011;75;48.784;9.364;2022-12-18T06:53:19;71.82;;;23.27;;
173;SDS011;75;48.784;9.364;2022-12-18T06:55:46;82.03;;;24.38;;
173;SDS011;75;48.784;9.364;2022-12-18T06:58:14;68.75;;;22.95;;
173;SDS011;75;48.784;9.364;2022-12-18T07:00:41;79.75;;;24.35;;
173;SDS011;75;48.784;9.364;2022-12-18T07:03:08;78.22;;;23.33;;
173;SDS011;75;48.784;9.364;2022-12-18T07:05:40;82.63;;;25.08;;
173;SDS011;75;48.784;9.364;2022-12-18T07:08:07;78.00;;;22.52;;
173;SDS011;75;48.784;9.364;2022-12-18T07:10:40;74.28;;;23.42;;
173;SDS011;75;48.784;9.364;2022-12-18T07:13:08;76.88;;;22.35;;
173;SDS011;75;48.784;9.364;2022-12-18T07:15:35;79.55;;;22.40;;
173;SDS011;75;48.784;9.364;2022-12-18T07:18:03;82.72;;;22.98;;
173;SDS011;75;48.784;9.364;2022-12-18T07:20:30;80.50;;;23.90;;
173;SDS011;75;48.784;9.364;2022-12-18T07:22:58;84.60;;;27.25;;
173;SDS011;75;48.784;9.364;2022-12-18T07:25:25;95.22;;;27.48;;
173;SDS011;75;48.784;9.364;2022-12-18T07:27:52;90.68;;;33.95;;
173;SDS011;75;48.784;9.364;2022-12-18T07:30:20;83.72;;;28.38;;
173;SDS011;75;48.784;9.364;2022-12-18T07:32:47;96.68;;;27.17;;
173;SDS011;75;48.784;9.364;2022-12-18T07:35:14;98.60;;;31.23;;
173;SDS011;75;48.784;9.364;2022-12-18T07:37:42;98.38;;;32.10;;
173;SDS011;75;48.784;9.364;2022-12-18T07:40:09;90.93;;;29.65;;
173;SDS011;75;48.784;9.364;2022-12-18T07:42:37;86.72;;;27.05;;
173;SDS011;75;48.784;9.364;2022-12-18T07:45:04;84.53;;;29.67;;
173;SDS011;75;48.784;9.364;2022-12-18T07:47:34;82.57;;;25.05;;
173;SDS011;75;48.784;9.364;2022-12-18T07:50:02;107.22;;;31.90;;
173;SDS011;75;48.784;9.364;2022-12-18T07:52:30;97.55;;;34.60;;
173;SDS011;75;48.784;9.364;2022-12-18T07:54:57;92.88;;;30.60;;
173;SDS011;75;48.784;9.364;2022-12-18T07:57:24;96.82;;;31.77;;
173;SDS011;75;48.784;9.364;2022-12-18T07:59:52;92.75;;;33.88;;
173;SDS011;75;48.784;9.364;2022-12-18T08:02:19;102.80;;;36.40;;
173;SDS011;75;48.784;9.364;2022-12-18T08:04:46;116.47;;;37.90;;
173;SDS011;75;48.784;9.364;2022-12-18T08:07:14;97.78;;;30.20;;
173;SDS011;75;48.784;9.364;2022-12-18T08:09:41;96.70;;;31.25;;
173;SDS011;75;48.784;9.364;2022-12-18T08:12:08;101.75;;;34.88;;
173;SDS011;75;48.784;9.364;2022-12-18T08:14:36;110.38;;;36.70;;
173;SDS011;75;48.784;9.364;2022-12-18T08:17:03;97.70;;;35.22;;
173;SDS011;75;48.784;9.364;2022-12-18T08:19:31;115.72;;;39.65;;
173;SDS011;75;48.784;9.364;2022-12-18T08:21:58;109.68;;;39.33;;
173;SDS011;75;48.784;9.364;2022-12-18T08:24:25;134.40;;;44.40;;
173;SDS011;75;48.784;9.364;2022-12-18T08:26:53;184.68;;;61.63;;
173;SDS011;75;48.784;9.364;2022-12-18T08:29:20;151.43;;;49.08;;
173;SDS011;75;48.784;9.364;2022-12-18T08:31:47;144.75;;;49.15;;
173;SDS011;75;48.784;9.364;2022-12-18T08:34:15;119.53;;;44.58;;
173;SDS011;75;48.784;9.364;2022-12-18T08:36:42;136.45;;;46.33;;
173;SDS011;75;48.784;9.364;2022-12-18T08:39:09;150.20;;;48.17;;
173;SDS011;75;48.784;9.364;2022-12-18T08:41:37;141.32;;;46.65;;
173;SDS011;75;48.784;9.364;2022-12-18T08:44:04;142.15;;;42.85;;
173;SDS011;75;48.784;9.364;2022-12-18T08:47:10;134.02;;;45.80;;
173;SDS011;75;48.784;9.364;2022-12-18T08:49:37;150.38;;;50.88;;
173;SDS011;75;48.784;9.364;2022-12-18T08:52:05;124.00;;;47.92;;
173;SDS011;75;48.784;9.364;2022-12-18T08:54:32;123.88;;;41.40;;
173;SDS011;75;48.784;9.364;2022-12-18T08:57:00;125.05;;;47.00;;
173;SDS011;75;48.784;9.364;2022-12-18T08:59:27;144.23;;;50.88;;
173;SDS011;75;48.784;9.364;2022-12-18T09:01:54;153.15;;;51.53;;
173;SDS011;75;48.784;9.364;2022-12-18T09:04:22;143.83;;;54.57;;
173;SDS011;75;48.784;9.364;2022-12-18T09:06:49;129.77;;;51.67;;
173;SDS011;75;48.784;9.364;2022-12-18T09:09:17;140.52;;;49.13;;
173;SDS011;75;48.784;9.364;2022-12-18T09:11:44;138.40;;;51.83;;
173;SDS011;75;48.784;9.364;2022-12-18T09:14:11;132.07;;;52.23;;
173;SDS011;75;48.784;9.364;2022-12-18T09:16:39;152.35;;;55.92;;
173;SDS011;75;48.784;9.364;2022-12-18T09:19:06;132.27;;;48.67;;
173;SDS011;75;48.784;9.364;2022-12-18T09:21:34;136.13;;;50.37;;
173;SDS011;75;48.784;9.364;2022-12-18T09:24:01;109.23;;;38.87;;
173;SDS011;75;48.784;9.364;2022-12-18T09:26:29;135.18;;;47.20;;
173;SDS011;75;48.784;9.364;2022-12-18T09:28:56;112.18;;;40.28;;
173;SDS011;75;48.784;9.364;2022-12-18T09:31:24;105.87;;;39.57;;
173;SDS011;75;48.784;9.364;2022-12-18T09:33:51;89.73;;;35.57;;
173;SDS011;75;48.784;9.364;2022-12-18T09:36:19;94.03;;;32.67;;
173;SDS011;75;48.784;9.364;2022-12-18T09:38:46;95.10;;;32.97;;
173;SDS011;75;48.784;9.364;2022-12-18T09:41:17;87.97;;;32.30;;
173;SDS011;75;48.784;9.364;2022-12-18T09:43:47;79.60;;;32.60;;
173;SDS011;75;48.784;9.364;2022-12-18T09:46:37;76.57;;;30.97;;
173;SDS011;75;48.784;9.364;2022-12-18T09:49:07;86.97;;;31.43;;
173;SDS011;75;48.784;9.364;2022-12-18T09:51:39;85.17;;;31.80;;
173;SDS011;75;48.784;9.364;2022-12-18T09:54:26;83.77;;;30.43;;
173;SDS011;75;48.784;9.364;2022-12-18T09:56:53;81.83;;;31.03;;
173;SDS011;75;48.784;9.364;2022-12-18T09:59:25;78.53;;;31.60;;
173;SDS011;75;48.784;9.364;2022-12-18T10:01:53;76.03;;;31.53;;
173;SDS011;75;48.784;9.364;2022-12-18T10:04:21;74.23;;;29.83;;
173;SDS011;75;48.784;9.364;2022-12-18T10:06:51;82.00;;;35.07;;
173;SDS011;75;48.784;9.364;2022-12-18T10:09:33;74.33;;;32.17;;
173;SDS011;75;48.784;9.364;2022-12-18T10:19:55;66.53;;;27.70;;
173;SDS011;75;48.784;9.364;2022-12-18T10:22:41;64.90;;;29.20;;
173;SDS011;75;48.784;9.364;2022-12-18T10:27:47;65.80;;;30.17;;
173;SDS011;75;48.784;9.364;2022-12-18T10:30:16;72.97;;;32.50;;
173;SDS011;75;48.784;9.364;2022-12-18T10:32:44;68.50;;;30.80;;
173;SDS011;75;48.784;9.364;2022-12-18T10:35:15;62.87;;;26.77;;
173;SDS011;75;48.784;9.364;2022-12-18T10:38:03;66.17;;;27.77;;
173;SDS011;75;48.784;9.364;2022-12-18T10:40:31;62.13;;;26.37;;
173;SDS011;75;48.784;9.364;2022-12-18T10:43:03;65.33;;;28.53;;
173;SDS011;75;48.784;9.364;2022-12-18T10:45:31;60.37;;;28.37;;
173;SDS011;75;48.784;9.364;2022-12-18T10:47:58;61.73;;;29.77;;
173;SDS011;75;48.784;9.364;2022-12-18T10:50:29;60.77;;;28.10;;
173;SDS011;75;48.784;9.364;2022-12-18T10:52:58;60.10;;;27.27;;
173;SDS011;75;48.784;9.364;2022-12-18T10:55:27;64.97;;;30.70;;
173;SDS011;75;48.784;9.364;2022-12-18T10:57:56;57.90;;;27.20;;
173;SDS011;75;48.784;9.364;2022-12-18T11:00:39;55.97;;;26.73;;
173;SDS011;75;48.784;9.364;2022-12-18T11:06:12;66.97;;;33.03;;
173;SDS011;75;48.784;9.364;2022-12-18T11:08:41;57.03;;;26.90;;
173;SDS011;75;48.784;9.364;2022-12-18T11:11:16;54.27;;;26.67;;
173;SDS011;75;48.784;9.364;2022-12-18T11:13:57;57.30;;;25.87;;
173;SDS011;75;48.784;9.364;2022-12-18T11:16:26;54.00;;;25.10;;
173;SDS011;75;48.784;9.364;2022-12-18T11:18:53;59.80;;;26.47;;
173;SDS011;75;48.784;9.364;2022-12-18T11:21:21;55.53;;;26.77;;
173;SDS011;75;48.784;9.364;2022-12-18T11:23:52;57.77;;;26.90;;
173;SDS011;75;48.784;9.364;2022-12-18T11:26:20;54.20;;;25.00;;
173;SDS011;75;48.784;9.364;2022-12-18T11:28:51;52.87;;;25.47;;
173;SDS011;75;48.784;9.364;2022-12-18T11:33:49;56.10;;;25.33;;
173;SDS011;75;48.784;9.364;2022-12-18T11:36:17;49.73;;;24.00;;
173;SDS011;75;48.784;9.364;2022-12-18T11:38:45;54.63;;;25.43;;
173;SDS011;75;48.784;9.364;2022-12-18T11:41:16;56.10;;;25.60;;
173;SDS011;75;48.784;9.364;2022-12-18T11:43:48;54.70;;;25.87;;
173;SDS011;75;48.784;9.364;2022-12-18T11:46:18;55.77;;;25.53;;
173;SDS011;75;48.784;9.364;2022-12-18T11:48:49;62.30;;;28.20;;
173;SDS011;75;48.784;9.364;2022-12-18T11:51:26;56.10;;;26.17;;
173;SDS011;75;48.784;9.364;2022-12-18T11:53:54;54.50;;;25.77;;
173;SDS011;75;48.784;9.364;2022-12-18T11:56:29;52.57;;;25.30;;
173;SDS011;75;48.784;9.364;2022-12-18T12:04:08;58.63;;;26.97;;
173;SDS011;75;48.784;9.364;2022-12-18T12:09:16;57.43;;;27.17;;
173;SDS011;75;48.784;9.364;2022-12-18T12:17:00;57.33;;;26.13;;
173;SDS011;75;48.784;9.364;2022-12-18T12:22:03;61.60;;;27.40;;
173;SDS011;75;48.784;9.364;2022-12-18T12:27:20;58.20;;;28.17;;
173;SDS011;75;48.784;9.364;2022-12-18T12:30:02;53.10;;;26.40;;
173;SDS011;75;48.784;9.364;2022-12-18T12:35:19;58.03;;;28.17;;
173;SDS011;75;48.784;9.364;2022-12-18T12:40:26;56.07;;;26.17;;
173;SDS011;75;48.784;9.364;2022-12-18T12:43:01;51.87;;;25.97;;
173;SDS011;75;48.784;9.364;2022-12-18T12:48:07;52.07;;;24.90;;
173;SDS011;75;48.784;9.364;2022-12-18T12:50:41;51.23;;;24.10;;
173;SDS011;75;48.784;9.364;2022-12-18T12:53:09;54.63;;;24.60;;
173;SDS011;75;48.784;9.364;2022-12-18T12:55:41;54.00;;;25.20;;
173;SDS011;75;48.784;9.364;2022-12-18T12:58:17;52.17;;;25.07;;
173;SDS011;75;48.784;9.364;2022-12-18T13:09:02;54.77;;;25.63;;
173;SDS011;75;48.784;9.364;2022-12-18T13:11:40;55.03;;;26.07;;
173;SDS011;75;48.784;9.364;2022-12-18T13:14:30;50.57;;;24.23;;
173;SDS011;75;48.784;9.364;2022-12-18T13:17:14;51.47;;;23.83;;
173;SDS011;75;48.784;9.364;2022-12-18T13:19:42;58.73;;;27.83;;
173;SDS011;75;48.784;9.364;2022-12-18T13:22:22;57.67;;;26.57;;
173;SDS011;75;48.784;9.364;2022-12-18T13:24:50;63.00;;;31.00;;
173;SDS011;75;48.784;9.364;2022-12-18T13:30:15;51.27;;;25.57;;
173;SDS011;75;48.784;9.364;2022-12-18T13:33:18;53.50;;;26.07;;
173;SDS011;75;48.784;9.364;2022-12-18T13:35:39;65.37;;;34.30;;
173;SDS011;75;48.784;9.364;2022-12-18T13:48:34;61.63;;;28.77;;
173;SDS011;75;48.784;9.364;2022-12-18T13:51:06;90.83;;;45.90;;
173;SDS011;75;48.784;9.364;2022-12-18T13:56:22;63.17;;;32.77;;
173;SDS011;75;48.784;9.364;2022-12-18T14:01:35;56.50;;;28.43;;
173;SDS011;75;48.784;9.364;2022-12-18T14:04:16;59.07;;;27.37;;
173;SDS011;75;48.784;9.364;2022-12-18T14:06:45;58.90;;;28.33;;
173;SDS011;75;48.784;9.364;2022-12-18T14:09:14;57.50;;;27.03;;
173;SDS011;75;48.784;9.364;2022-12-18T14:11:45;57.27;;;27.23;;
173;SDS011;75;48.784;9.364;2022-12-18T14:14:14;57.03;;;26.60;;
173;SDS011;75;48.784;9.364;2022-12-18T14:16:42;58.60;;;28.60;;
173;SDS011;75;48.784;9.364;2022-12-18T14:19:12;62.77;;;30.03;;
173;SDS011;75;48.784;9.364;2022-12-18T14:21:40;58.87;;;27.90;;
173;SDS011;75;48.784;9.364;2022-12-18T14:26:42;61.63;;;29.17;;
173;SDS011;75;48.784;9.364;2022-12-18T14:34:35;59.93;;;25.90;;
173;SDS011;75;48.784;9.364;2022-12-18T14:37:03;56.33;;;28.60;;
173;SDS011;75;48.784;9.364;2022-12-18T14:39:30;61.17;;;28.50;;
173;SDS011;75;48.784;9.364;2022-12-18T14:41:58;58.03;;;27.87;;
173;SDS011;75;48.784;9.364;2022-12-18T14:44:25;58.47;;;27.50;;
173;SDS011;75;48.784;9.364;2022-12-18T14:46:52;64.20;;;28.57;;
173;SDS011;75;48.784;9.364;2022-12-18T14:49:24;61.67;;;29.37;;
173;SDS011;75;48.784;9.364;2022-12-18T14:51:57;63.83;;;28.33;;
173;SDS011;75;48.784;9.364;2022-12-18T14:54:25;63.90;;;30.07;;
173;SDS011;75;48.784;9.364;2022-12-18T14:57:05;64.70;;;29.80;;
173;SDS011;75;48.784;9.364;2022-12-18T14:59:33;64.13;;;28.57;;
173;SDS011;75;48.784;9.364;2022-12-18T15:04:42;65.30;;;30.00;;
173;SDS011;75;48.784;9.364;2022-12-18T15:07:21;63.40;;;28.70;;
173;SDS011;75;48.784;9.364;2022-12-18T15:15:04;66.03;;;30.10;;
173;SDS011;75;48.784;9.364;2022-12-18T15:17:32;70.70;;;30.77;;
173;SDS011;75;48.784;9.364;2022-12-18T15:20:03;66.00;;;31.53;;
173;SDS011;75;48.784;9.364;2022-12-18T15:22:36;73.73;;;32.27;;
173;SDS011;75;48.784;9.364;2022-12-18T15:25:19;72.60;;;34.00;;
173;SDS011;75;48.784;9.364;2022-12-18T15:27:49;72.33;;;32.73;;
173;SDS011;75;48.784;9.364;2022-12-18T15:30:20;69.20;;;30.87;;
173;SDS011;75;48.784;9.364;2022-12-18T15:32:48;74.90;;;32.67;;
173;SDS011;75;48.784;9.364;2022-12-18T15:35:22;73.47;;;31.23;;
173;SDS011;75;48.784;9.364;2022-12-18T15:37:50;68.73;;;29.23;;
173;SDS011;75;48.784;9.364;2022-12-18T15:40:19;71.80;;;29.90;;
173;SDS011;75;48.784;9.364;2022-12-18T15:42:47;67.17;;;28.60;;
173;SDS011;75;48.784;9.364;2022-12-18T15:45:34;70.67;;;29.17;;
173;SDS011;75;48.784;9.364;2022-12-18T15:48:01;70.37;;;31.30;;
173;SDS011;75;48.784;9.364;2022-12-18T15:50:29;71.03;;;27.93;;
173;SDS011;75;48.784;9.364;2022-12-18T15:52:56;72.63;;;28.50;;
173;SDS011;75;48.784;9.364;2022-12-18T15:55:23;72.63;;;29.50;;
173;SDS011;75;48.784;9.364;2022-12-18T15:58:10;66.00;;;28.00;;
173;SDS011;75;48.784;9.364;2022-12-18T16:00:38;64.40;;;27.00;;
173;SDS011;75;48.784;9.364;2022-12-18T16:03:05;62.77;;;26.13;;
173;SDS011;75;48.784;9.364;2022-12-18T16:05:33;68.90;;;27.70;;
173;SDS011;75;48.784;9.364;2022-12-18T16:08:01;81.80;;;34.53;;
173;SDS011;75;48.784;9.364;2022-12-18T16:10:28;106.30;;;41.00;;
173;SDS011;75;48.784;9.364;2022-12-18T16:12:55;101.10;;;41.13;;
173;SDS011;75;48.784;9.364;2022-12-18T16:15:23;105.17;;;46.03;;
173;SDS011;75;48.784;9.364;2022-12-18T16:17:50;105.80;;;47.43;;
173;SDS011;75;48.784;9.364;2022-12-18T16:20:21;103.10;;;44.70;;
173;SDS011;75;48.784;9.364;2022-12-18T16:22:49;113.23;;;45.20;;
173;SDS011;75;48.784;9.364;2022-12-18T16:25:24;127.97;;;48.73;;
173;SDS011;75;48.784;9.364;2022-12-18T16:27:52;141.07;;;54.23;;
173;SDS011;75;48.784;9.364;2022-12-18T16:30:22;144.70;;;52.90;;
173;SDS011;75;48.784;9.364;2022-12-18T16:32:50;132.17;;;49.43;;
173;SDS011;75;48.784;9.364;2022-12-18T16:35:17;132.33;;;51.03;;
173;SDS011;75;48.784;9.364;2022-12-18T16:37:45;116.43;;;45.73;;
173;SDS011;75;48.784;9.364;2022-12-18T16:40:13;123.50;;;46.80;;
173;SDS011;75;48.784;9.364;2022-12-18T16:42:42;111.90;;;45.20;;
173;SDS011;75;48.784;9.364;2022-12-18T16:45:11;100.67;;;41.40;;
173;SDS011;75;48.784;9.364;2022-12-18T16:47:38;95.97;;;41.70;;
173;SDS011;75;48.784;9.364;2022-12-18T16:50:06;117.10;;;46.90;;
173;SDS011;75;48.784;9.364;2022-12-18T16:52:34;114.13;;;42.30;;
173;SDS011;75;48.784;9.364;2022-12-18T16:55:02;112.93;;;46.47;;
173;SDS011;75;48.784;9.364;2022-12-18T16:57:29;143.27;;;52.73;;
173;SDS011;75;48.784;9.364;2022-12-18T16:59:57;128.60;;;50.40;;
173;SDS011;75;48.784;9.364;2022-12-18T17:02:25;109.37;;;45.57;;
173;SDS011;75;48.784;9.364;2022-12-18T17:04:56;176.53;;;80.73;;
173;SDS011;75;48.784;9.364;2022-12-18T17:07:23;121.60;;;53.60;;
173;SDS011;75;48.784;9.364;2022-12-18T17:09:51;124.33;;;53.20;;
173;SDS011;75;48.784;9.364;2022-12-18T17:12:19;111.83;;;48.63;;
173;SDS011;75;48.784;9.364;2022-12-18T17:14:47;126.83;;;46.97;;
173;SDS011;75;48.784;9.364;2022-12-18T17:17:14;116.50;;;46.17;;
173;SDS011;75;48.784;9.364;2022-12-18T17:19:42;98.13;;;39.80;;
173;SDS011;75;48.784;9.364;2022-12-18T17:22:09;112.33;;;46.13;;
173;SDS011;75;48.784;9.364;2022-12-18T17:24:36;127.00;;;51.80;;
173;SDS011;75;48.784;9.364;2022-12-18T17:27:04;98.00;;;42.67;;
173;SDS011;75;48.784;9.364;2022-12-18T17:29:31;75.50;;;31.50;;
173;SDS011;75;48.784;9.364;2022-12-18T17:31:59;71.20;;;27.87;;
173;SDS011;75;48.784;9.364;2022-12-18T17:34:26;62.00;;;26.70;;
173;SDS011;75;48.784;9.364;2022-12-18T17:36:54;66.33;;;28.97;;